Date,TemperatureHighF,TemperatureAvgF,TemperatureLowF,DewpointHighF,DewpointAvgF,DewpointLowF,HumidityHigh,HumidityAvg,HumidityLow,PressureMaxIn,PressureMinIn,WindSpeedMaxMPH,WindSpeedAvgMPH,GustSpeedMaxMPH,PrecipitationSumIn
2013-1-1,56.7,45.1,37.4,43.0,38.8,35.0,98,81,46,30.28,30.20,14,4,19,0.00
2013-1-2,58.9,47.3,37.3,39.0,34.0,30.0,91,62,40,30.25,30.12,10,4,14,0.00
2013-1-3,59.3,47.0,38.9,46.0,38.6,34.0,91,74,45,30.28,30.16,7,2,9,0.00
2013-1-4,60.5,47.3,38.9,46.0,39.5,37.0,94,76,46,30.29,30.17,7,2,12,0.00
2013-1-5,52.1,46.7,40.7,48.0,44.5,38.0,96,92,83,30.25,30.04,14,5,21,0.34
2013-1-6,56.3,49.3,45.4,50.0,46.6,44.0,96,90,72,30.20,30.05,12,3,16,0.01
2013-1-7,59.5,48.9,40.4,55.0,47.4,40.0,99,94,80,30.27,30.15,12,2,20,0.00
2013-1-8,60.3,48.8,40.8,55.0,47.8,41.0,100,96,81,30.25,30.13,9,2,13,0.01
2013-1-9,54.3,48.0,43.7,53.0,45.6,38.0,99,91,76,30.17,30.02,21,5,35,0.03
2013-1-10,51.9,46.0,40.5,43.0,39.2,36.0,86,77,68,30.23,30.09,20,7,29,0.00
2013-1-11,52.3,46.0,38.3,45.0,39.9,35.0,90,79,72,30.27,30.14,15,6,28,0.00
2013-1-12,51.3,42.3,34.4,41.0,36.1,33.0,94,80,55,30.27,30.14,7,2,9,0.00
2013-1-13,52.1,40.2,30.7,41.0,34.1,24.0,92,79,47,30.28,30.18,14,2,20,0.00
2013-1-14,54.5,42.7,34.3,39.0,30.8,22.0,93,65,38,30.40,30.24,8,2,11,0.00
2013-1-15,56.8,42.5,35.6,45.0,38.4,34.0,97,86,55,30.49,30.40,6,1,9,0.00
2013-1-16,58.0,43.4,34.3,47.0,38.1,32.0,94,83,60,30.45,30.28,8,1,11,0.00
2013-1-17,63.7,47.2,37.1,50.0,40.5,35.0,95,79,51,30.28,30.13,12,4,18,0.00
2013-1-18,67.5,53.1,43.2,43.0,38.4,34.0,85,60,33,30.21,30.11,9,3,11,0.00
2013-1-19,66.2,51.2,42.5,43.0,38.1,35.0,88,63,38,30.23,30.14,10,3,12,0.00
2013-1-20,67.1,51.4,42.2,45.0,38.9,35.0,88,66,33,30.22,30.10,9,2,11,0.00
2013-1-21,65.9,53.6,41.6,44.0,37.3,31.0,91,56,34,30.16,30.05,12,4,18,0.00
2013-1-22,64.7,55.5,47.0,45.0,39.2,34.0,78,56,36,30.10,29.98,12,4,18,0.00
2013-1-23,58.4,53.0,50.2,51.0,47.0,40.0,97,81,50,30.09,29.95,7,2,13,0.38
2013-1-24,61.0,54.2,50.3,57.0,52.6,50.0,98,94,83,30.19,30.07,8,2,12,0.01
2013-1-25,63.1,54.5,50.4,58.0,52.9,50.0,98,94,81,30.19,30.05,8,2,13,0.00
2013-1-26,54.9,51.7,47.0,52.0,47.9,44.0,99,87,73,30.10,30.00,20,8,30,0.00
2013-1-27,54.1,49.1,45.0,46.0,42.8,39.0,89,79,66,30.21,30.09,23,8,33,0.00
2013-1-28,54.9,49.7,45.8,48.0,45.4,40.0,93,85,76,30.31,30.19,25,7,31,0.00
2013-1-29,55.5,50.3,45.1,50.0,46.7,44.0,96,87,73,30.36,30.29,19,6,23,0.00
2013-1-30,63.6,48.8,40.1,53.0,45.3,40.0,98,89,68,30.34,30.26,7,1,8,0.01
2013-1-31,64.4,48.8,40.6,54.0,45.3,40.0,98,88,59,30.30,30.19,5,1,9,0.01
2013-2-1,67.5,53.6,42.8,51.0,46.2,42.0,98,79,48,30.23,30.10,13,3,16,0.01
2013-2-2,57.3,50.2,46.7,53.0,48.3,46.0,99,93,79,30.32,30.23,9,3,14,0.00
2013-2-3,56.2,50.1,45.8,50.0,47.6,45.0,97,91,77,30.27,30.16,11,3,19,0.00
2013-2-4,51.4,48.6,45.6,49.0,47.5,45.0,99,95,91,30.19,30.09,10,3,14,0.00
2013-2-5,56.5,50.6,46.9,52.0,47.8,45.0,96,90,82,30.18,30.08,16,6,21,0.00
2013-2-6,55.3,47.8,38.9,50.0,45.2,38.0,98,91,77,30.21,30.14,13,3,21,0.00
2013-2-7,55.2,48.9,41.4,50.0,46.0,40.0,98,90,70,30.17,30.00,12,4,19,0.28
2013-2-8,54.4,45.7,37.2,48.0,42.2,37.0,97,88,74,30.03,29.96,19,3,24,0.00
2013-2-9,56.5,44.5,35.6,46.0,39.1,33.0,97,82,57,30.11,30.03,8,2,12,0.01
2013-2-10,58.4,44.6,35.1,51.0,40.5,31.0,97,86,56,30.13,30.03,8,2,11,0.00
2013-2-11,64.1,50.2,39.0,52.0,43.0,34.0,98,79,41,30.24,30.10,12,3,14,0.00
2013-2-12,55.7,46.6,37.7,51.0,45.1,38.0,99,94,83,30.37,30.24,11,3,12,0.00
2013-2-13,56.8,47.8,37.3,51.0,46.0,37.0,100,94,77,30.35,30.22,7,2,10,0.01
2013-2-14,63.8,49.8,39.3,52.0,45.6,39.0,100,87,60,30.26,30.16,9,-13,12,0.01
2013-2-15,73.7,57.4,43.5,53.0,45.5,41.0,97,69,32,30.25,30.19,7,2,11,0.00
2013-2-16,64.7,52.3,44.9,54.0,48.5,43.0,96,87,62,30.25,30.07,11,3,18,0.00
2013-2-17,56.7,50.5,43.2,49.0,46.2,40.0,96,86,65,30.07,29.99,16,4,19,0.00
2013-2-18,53.5,47.6,40.2,47.0,43.8,39.0,98,87,74,30.04,29.97,19,7,25,0.01
2013-2-19,50.6,46.4,41.0,47.0,41.7,36.0,94,84,68,29.98,29.77,23,8,29,0.23
2013-2-20,54.9,46.8,38.1,47.0,41.5,35.0,91,82,67,30.09,29.88,20,6,30,0.00
2013-2-21,57.2,48.9,42.6,47.0,43.5,38.0,95,82,66,30.19,30.08,19,6,28,0.00
2013-2-22,57.1,47.4,38.2,49.0,44.2,37.0,97,89,67,30.27,30.19,15,4,27,0.00
2013-2-23,53.9,49.0,41.9,49.0,43.6,37.0,98,82,64,30.28,30.20,24,7,31,0.01
2013-2-24,57.9,46.9,37.4,47.0,40.8,34.0,95,80,51,30.28,30.17,11,4,18,0.00
2013-2-25,57.0,48.2,41.1,51.0,44.8,40.0,96,88,76,30.29,30.18,18,4,24,0.02
2013-2-26,59.6,47.1,37.5,48.0,41.5,35.0,95,82,46,30.24,30.17,10,2,15,0.00
2013-2-27,61.8,49.1,39.0,49.0,44.9,38.0,98,87,55,30.38,30.23,21,3,22,0.01
2013-2-28,57.3,51.1,46.9,54.0,50.2,47.0,99,96,87,30.46,30.38,15,3,15,0.00
2013-3-1,65.3,50.2,43.6,57.0,48.6,44.0,100,94,74,30.45,30.26,8,2,15,0.01
2013-3-2,62.3,51.4,44.5,57.0,49.9,44.0,100,95,82,30.26,30.09,9,2,12,0.00
2013-3-3,54.4,50.9,47.8,52.0,49.5,47.0,98,95,87,30.12,30.06,13,6,19,0.00
2013-3-4,53.6,48.8,45.2,48.0,46.0,43.0,97,90,78,30.16,30.07,13,4,16,0.00
2013-3-5,55.6,49.0,42.9,51.0,46.1,42.0,98,90,77,30.08,29.80,25,8,34,0.39
2013-3-6,54.9,50.1,42.3,51.0,46.8,41.0,97,88,75,30.06,29.82,26,9,38,0.13
2013-3-7,55.1,47.6,40.7,49.0,45.1,40.0,98,91,68,30.00,29.89,8,2,15,0.03
2013-3-8,54.3,48.0,39.3,49.0,45.1,39.0,98,89,80,30.06,29.86,27,8,38,0.01
2013-3-9,57.8,50.3,42.7,51.0,46.2,39.0,97,86,71,30.34,30.06,11,5,21,0.00
2013-3-10,61.2,49.8,42.3,53.0,47.3,42.0,100,92,68,30.36,30.27,10,3,15,0.01
2013-3-11,63.8,49.2,39.9,55.0,47.2,40.0,100,93,73,30.28,30.13,10,2,13,0.01
2013-3-12,59.1,50.1,44.2,54.0,49.1,44.0,100,96,83,30.17,30.10,10,3,15,0.00
2013-3-13,69.7,50.2,42.8,59.0,48.8,43.0,100,95,65,30.18,30.09,12,2,16,0.00
2013-3-14,56.9,49.8,46.4,54.0,48.9,46.0,100,97,85,30.20,30.11,10,2,19,0.01
2013-3-15,61.6,51.1,45.9,55.0,49.5,45.0,99,94,77,30.16,30.05,16,4,22,0.01
2013-3-16,57.8,51.7,45.9,53.0,49.7,46.0,100,93,80,30.16,30.05,24,6,29,0.01
2013-3-17,56.9,51.2,47.6,51.0,47.9,46.0,97,89,76,30.16,30.06,19,7,23,0.00
2013-3-18,56.9,49.5,41.0,51.0,46.4,40.0,98,89,71,30.14,30.04,10,3,19,0.00
2013-3-19,58.0,51.1,46.4,53.0,47.7,44.0,95,88,74,30.14,30.07,10,2,14,0.08
2013-3-20,56.3,51.8,48.1,56.0,51.1,46.0,100,97,91,30.16,30.06,12,4,16,0.44
2013-3-21,56.4,49.7,42.1,48.0,45.6,40.0,97,86,73,30.16,30.04,18,6,24,0.01
2013-3-22,58.8,48.5,38.9,49.0,44.0,37.0,98,85,60,30.15,30.06,21,4,23,0.00
2013-3-23,60.5,48.5,38.5,49.0,44.5,38.0,97,87,65,30.16,30.07,14,3,18,0.00
2013-3-24,56.8,49.4,43.5,51.0,46.9,43.0,98,91,76,30.11,30.00,10,4,19,0.01
2013-3-25,54.1,49.3,46.5,48.0,46.6,45.0,96,90,79,30.05,29.97,14,6,20,0.00
2013-3-26,58.4,51.1,47.6,51.0,47.9,46.0,96,89,74,30.02,29.96,12,4,15,0.00
2013-3-27,59.0,52.4,47.8,56.0,51.5,47.0,99,97,90,30.02,29.95,10,3,14,0.02
2013-3-28,62.5,56.0,51.8,58.0,54.1,51.0,99,93,81,30.10,30.01,13,2,14,0.01
2013-3-29,72.4,55.8,47.8,60.0,53.0,48.0,100,91,59,30.10,30.03,12,3,15,0.00
2013-3-30,67.8,56.1,50.8,59.0,53.8,51.0,100,92,65,30.08,30.00,19,4,22,0.08
2013-3-31,65.2,56.6,52.4,59.0,54.9,52.0,99,94,78,30.07,30.01,13,4,21,0.30
2013-4-1,61.6,55.8,50.9,56.0,53.9,50.0,99,93,79,30.16,30.05,9,2,14,0.01
2013-4-2,56.4,51.8,49.8,54.0,51.2,50.0,100,98,89,30.21,30.13,12,4,15,0.00
2013-4-3,62.1,51.8,47.4,59.0,51.0,47.0,100,97,81,30.16,30.02,11,4,15,0.01
2013-4-4,58.6,55.0,50.4,58.0,53.8,50.0,100,96,83,30.12,29.98,12,6,24,0.89
2013-4-5,61.3,56.1,53.1,56.0,45.2,28.0,85,68,33,30.20,30.12,9,4,13,0.04
2013-4-6,61.7,55.3,53.6,53.0,-12.1,-99.9,73,20,1,30.20,30.15,10,4,13,0.06
2013-4-7,58.6,55.2,51.1,50.0,-21.9,-202.0,74,23,1,30.18,29.87,26,7,38,0.19
2013-4-8,58.6,52.1,47.8,50.0,42.1,22.0,77,69,36,30.08,29.85,26,11,53,0.00
2013-4-9,59.7,52.1,42.2,51.0,37.4,7.0,76,59,21,30.15,30.07,16,5,22,0.00
2013-4-10,63.3,53.7,46.9,55.0,7.5,-202.0,76,37,1,30.20,30.09,16,5,28,0.00
2013-4-11,60.6,52.2,48.4,52.0,-16.5,-202.0,73,33,2,30.12,29.86,19,8,31,0.00
2013-4-12,58.1,50.9,46.4,48.0,-37.9,-202.0,69,22,1,29.94,29.85,21,6,29,0.00
2013-4-13,55.4,50.9,48.0,46.0,2.8,-202.0,73,39,2,29.93,29.86,31,10,38,0.00
2013-4-14,54.7,49.7,45.9,46.0,22.1,-202.0,73,55,10,29.96,29.90,31,10,42,0.00
2013-4-15,53.1,48.7,44.2,44.0,6.7,-202.0,73,49,1,30.00,29.89,28,11,40,0.00
2013-4-16,56.4,48.9,39.6,47.0,27.8,-99.9,73,58,7,30.20,30.00,22,6,30,0.00
2013-4-17,63.2,51.0,43.2,48.0,19.9,-202.0,72,48,5,30.30,30.19,14,3,21,0.00
2013-4-18,60.7,50.6,42.3,51.0,-32.0,-202.0,70,27,5,30.28,30.21,12,3,16,0.01
2013-4-19,62.0,53.0,45.1,51.0,-36.9,-202.0,67,23,4,30.25,30.10,16,5,23,0.00
2013-4-20,59.3,52.0,46.8,48.0,-41.2,-202.0,66,20,3,30.14,30.03,11,4,18,0.01
2013-4-21,66.1,53.9,45.4,53.0,-37.0,-202.0,65,23,13,30.05,29.95,8,2,10,0.00
2013-4-22,73.7,59.4,49.0,59.0,-28.2,-202.0,65,27,17,29.97,29.86,9,2,11,0.01
2013-4-23,66.0,55.8,48.6,52.0,-21.3,-202.0,66,22,1,29.96,29.85,14,5,23,0.00
2013-4-24,58.2,51.0,46.5,22.0,-86.6,-202.0,26,2,1,29.96,29.86,15,6,20,0.00
2013-4-25,57.1,54.4,52.4,26.0,-51.7,-202.0,31,7,2,30.14,29.96,9,5,15,0.00
2013-4-26,54.8,51.6,49.1,13.0,-91.4,-202.0,19,1,1,30.25,30.14,13,7,19,0.00
2013-4-27,55.3,50.4,47.9,-99.9,-99.9,-202.0,0,0,100,30.24,30.09,13,6,15,0.00
2013-4-28,63.1,53.9,46.7,45.0,-61.4,-202.0,53,10,2,30.09,29.90,9,4,12,0.00
2013-4-29,63.1,55.9,49.7,47.0,-45.1,-202.0,56,13,4,29.92,29.81,18,5,29,0.00
2013-4-30,60.9,53.9,48.2,47.0,-24.7,-202.0,61,26,1,29.89,29.82,16,5,27,0.00
2013-5-1,75.1,58.1,47.0,54.0,-24.1,-202.0,61,24,2,30.09,29.88,10,2,15,0.00
2013-5-2,85.7,63.4,48.1,59.0,19.3,-202.0,61,36,17,30.14,30.08,8,2,14,0.00
2013-5-3,69.3,57.4,48.6,55.0,-17.0,-202.0,61,28,9,30.08,29.82,9,2,12,0.00
2013-5-4,72.0,59.4,49.0,57.0,-27.7,-202.0,61,23,2,29.81,29.58,18,4,22,0.01
2013-5-5,62.3,59.1,57.3,45.0,-24.0,-202.0,55,19,4,29.82,29.73,11,7,21,0.00
2013-5-6,71.4,60.5,53.8,55.0,-30.5,-202.0,63,19,2,29.97,29.81,12,5,20,0.00
2013-5-7,64.9,58.1,52.5,29.0,-83.1,-202.0,26,2,2,30.06,29.96,10,3,12,0.00
2013-5-8,55.7,53.5,52.1,-99.9,-99.9,-202.0,0,0,100,30.15,30.05,11,6,19,0.00
2013-5-9,56.3,53.5,52.2,-99.9,-99.9,-202.0,0,0,100,30.19,30.12,19,8,24,0.00
2013-5-10,57.7,53.1,51.6,-99.9,-99.9,-202.0,0,0,100,30.20,30.14,18,6,21,0.00
2013-5-11,62.7,53.8,50.1,-6.0,-98.9,-202.0,6,0,6,30.16,30.09,9,4,15,0.00
2013-5-12,60.1,55.1,51.3,-99.9,-99.9,-202.0,0,0,100,30.18,30.06,11,5,16,0.00
2013-5-13,60.1,55.5,52.2,-99.9,-99.9,-202.0,0,0,100,30.11,29.97,18,6,25,0.00
2013-5-14,61.0,55.2,51.4,34.0,-69.9,-202.0,36,5,1,30.01,29.94,26,9,31,0.00
2013-5-15,58.9,54.0,50.5,8.0,-91.4,-202.0,14,1,1,30.06,30.00,22,10,34,0.00
2013-5-16,59.1,55.2,52.2,-99.9,-99.9,-202.0,0,0,100,30.04,29.98,15,7,24,0.00
2013-5-17,59.2,54.5,50.0,30.0,-91.1,-202.0,33,1,1,30.09,29.98,19,6,26,0.00
2013-5-18,60.1,54.8,50.3,35.0,-73.9,-202.0,40,5,1,30.15,30.08,24,8,33,0.00
2013-5-19,62.3,55.4,49.3,40.0,-56.3,-202.0,45,8,3,30.15,30.01,14,4,21,0.00
2013-5-20,63.1,54.9,48.5,25.0,-86.1,-202.0,24,1,1,30.03,29.96,11,5,21,0.02
2013-5-21,58.7,53.9,49.6,29.0,-64.8,-202.0,33,5,2,30.03,29.94,27,12,39,0.00
2013-5-22,56.6,51.6,45.8,40.0,-2.2,-202.0,58,29,3,30.06,29.94,24,10,40,0.00
2013-5-23,58.8,52.9,48.2,42.0,-45.2,-202.0,55,14,3,30.03,29.94,20,8,26,0.00
2013-5-24,57.7,52.6,46.0,35.0,-46.7,-202.0,45,10,1,30.02,29.96,23,9,31,0.00
2013-5-25,58.2,53.1,48.0,27.0,-80.9,-202.0,31,3,6,30.06,29.97,27,9,33,0.00
2013-5-26,61.1,55.7,52.4,-99.9,-99.9,-202.0,0,0,100,30.15,30.06,16,8,23,0.00
2013-5-27,59.5,55.9,51.6,-99.9,-99.9,-202.0,0,0,100,30.14,30.00,10,4,13,0.21
2013-5-28,59.3,56.4,53.6,-99.9,-99.9,-202.0,0,0,100,30.02,29.94,13,4,19,0.03
2013-5-29,61.4,56.1,51.8,-99.9,-99.9,-202.0,0,0,100,30.00,29.93,20,6,33,0.00
2013-5-30,59.3,54.4,49.6,-99.9,-99.9,-202.0,0,0,100,30.02,29.95,21,8,36,0.00
2013-5-31,64.6,55.5,48.3,43.0,-64.5,-202.0,45,5,1,30.04,29.95,19,5,23,0.00
2013-6-1,63.6,55.8,48.9,40.0,-70.9,-202.0,45,5,2,29.96,29.82,20,5,23,0.00
2013-6-2,59.9,54.6,51.0,-99.9,-99.9,-202.0,0,0,100,29.82,29.68,14,6,21,0.00
2013-6-3,65.4,57.4,51.6,7.0,-94.0,-202.0,10,0,1,29.89,29.71,19,7,27,0.00
2013-6-4,60.6,56.3,54.0,-99.9,-99.9,-202.0,0,0,100,29.99,29.87,14,6,20,0.00
2013-6-5,59.9,55.5,52.8,-99.9,-99.9,-202.0,0,0,100,30.01,29.94,13,6,15,0.00
2013-6-6,61.0,54.9,52.5,-99.9,-99.9,-202.0,0,0,100,29.97,29.88,11,6,14,0.00
2013-6-7,64.0,56.9,52.8,-99.9,-99.9,-202.0,0,0,100,29.90,29.73,10,4,12,0.00
2013-6-8,72.4,61.8,54.1,41.0,-79.7,-202.0,33,3,5,29.83,29.73,13,5,19,0.00
2013-6-9,63.6,59.2,57.3,-99.9,-99.9,-202.0,0,0,100,29.91,29.83,14,7,19,0.00
2013-6-10,63.8,59.5,57.0,-99.9,-99.9,-202.0,0,0,100,29.96,29.84,13,5,16,0.03
2013-6-11,65.7,59.1,54.7,-99.9,-99.9,-202.0,0,0,100,29.99,29.90,12,4,19,0.00
2013-6-12,62.2,56.3,51.4,-99.9,-99.9,-202.0,0,0,100,30.02,29.92,28,9,36,0.00
2013-6-13,60.7,55.8,51.6,-99.9,-99.9,-202.0,0,0,100,30.12,30.02,22,8,27,0.00
2013-6-14,63.5,55.7,49.3,-99.9,-99.9,-202.0,0,0,100,30.02,29.86,11,4,14,0.00
2013-6-15,59.7,54.2,51.2,-99.9,-99.9,-202.0,0,0,100,30.01,29.83,15,6,20,0.00
2013-6-16,61.3,55.4,51.0,-99.9,-99.9,-202.0,0,0,100,30.11,30.01,16,7,24,0.00
2013-6-17,62.9,57.6,53.2,-99.9,-99.9,-202.0,0,0,100,30.11,30.04,18,8,26,0.00
2013-6-18,59.9,56.9,54.4,-99.9,-99.9,-202.0,0,0,100,30.06,29.99,19,9,27,0.00
2013-6-19,63.0,57.2,52.9,15.0,-96.9,-202.0,16,0,3,30.07,30.03,27,9,31,0.00
2013-6-20,62.5,56.6,51.9,-99.9,-99.9,-202.0,0,0,100,30.04,29.97,21,8,32,0.00
2013-6-21,62.3,56.4,50.4,-99.9,-99.9,-202.0,0,0,100,30.00,29.93,22,6,28,0.00
2013-6-22,64.5,57.3,50.7,0.0,-98.9,-202.0,8,0,8,29.95,29.87,21,6,29,0.00
2013-6-23,62.0,58.0,55.1,-99.9,-99.9,-202.0,0,0,100,29.89,29.82,12,5,21,0.00
2013-6-24,62.3,58.9,55.8,-99.9,-99.9,-202.0,0,0,100,29.89,29.80,8,4,13,0.13
2013-6-25,64.0,61.7,59.7,-99.9,-99.9,-202.0,0,0,100,29.98,29.87,11,6,19,0.41
2013-6-26,72.1,65.3,59.5,-99.9,-99.9,-202.0,0,0,100,30.06,29.96,11,3,13,0.01
2013-6-27,69.0,61.3,56.6,-99.9,-99.9,-202.0,0,0,100,30.11,30.04,11,3,18,0.01
2013-6-28,67.3,61.3,56.0,-99.9,-99.9,-202.0,0,0,100,30.04,29.95,14,5,16,0.00
2013-6-29,71.9,63.7,58.0,41.0,-39.8,-202.0,34,9,1,29.91,29.82,10,-17,15,0.00
2013-6-30,65.9,60.1,55.7,-99.9,-99.9,-202.0,0,0,100,29.87,29.79,12,5,19,0.00
2013-7-1,72.8,60.5,54.1,44.0,-86.6,-202.0,37,2,1,29.87,29.81,10,4,15,0.00
2013-7-2,78.4,62.8,55.5,57.0,-87.8,-202.0,49,3,10,29.92,29.82,21,7,28,0.00
2013-7-3,69.1,62.6,57.9,-99.9,-99.9,-202.0,0,0,100,29.91,29.78,10,3,13,0.00
2013-7-4,74.6,64.5,57.4,44.0,-60.3,-202.0,42,8,3,29.79,29.70,22,6,26,0.00
2013-7-5,63.4,57.9,54.4,-99.9,-99.9,-202.0,0,0,100,29.77,29.72,20,8,26,0.00
2013-7-6,67.6,57.5,52.7,6.0,-97.4,-202.0,9,0,3,29.80,29.74,18,5,24,0.00
2013-7-7,68.9,59.5,54.7,21.0,-93.3,-202.0,16,1,3,29.87,29.79,12,5,19,0.00
2013-7-8,67.6,59.2,54.6,-99.9,-99.9,-202.0,0,0,100,29.99,29.87,13,6,18,0.00
2013-7-9,62.9,56.1,51.4,-99.9,-99.9,-202.0,0,0,100,30.04,29.97,10,4,15,0.00
2013-7-10,62.7,55.7,52.7,-99.9,-99.9,-202.0,0,0,100,30.01,29.93,11,5,13,0.00
2013-7-11,58.8,55.0,52.0,-99.9,-99.9,-202.0,0,0,100,29.96,29.90,13,6,15,0.00
2013-7-12,62.0,57.4,54.2,-99.9,-99.9,-202.0,0,0,100,29.95,29.89,12,5,15,0.00
2013-7-13,65.9,57.9,51.8,-99.9,-99.9,-202.0,0,0,100,29.96,29.90,10,4,13,0.00
2013-7-14,63.3,56.7,52.5,-99.9,-99.9,-202.0,0,0,100,30.01,29.93,14,6,19,0.00
2013-7-15,60.3,55.7,51.5,-99.9,-99.9,-202.0,0,0,100,29.94,29.86,13,6,16,0.00
2013-7-16,64.8,59.4,55.5,-99.9,-99.9,-202.0,0,0,100,30.03,29.87,13,6,14,0.00
2013-7-17,63.8,59.3,55.9,-99.9,-99.9,-202.0,0,0,100,30.11,30.02,9,5,14,0.00
2013-7-18,62.7,57.4,53.9,-99.9,-99.9,-202.0,0,0,100,30.07,29.95,11,4,14,0.00
2013-7-19,64.0,57.7,54.0,-99.9,-99.9,-202.0,0,0,100,29.95,29.85,14,5,15,0.00
2013-7-20,63.6,57.0,53.6,-99.9,-99.9,-202.0,0,0,100,29.85,29.77,12,5,16,0.00
2013-7-21,69.0,59.3,55.0,50.0,-66.9,-202.0,51,7,1,29.89,29.77,14,6,20,0.00
2013-7-22,70.9,61.6,56.0,25.0,-93.5,-202.0,18,1,1,29.97,29.89,16,5,18,0.00
2013-7-23,67.4,60.7,57.6,-99.9,-99.9,-202.0,0,0,100,30.02,29.95,8,3,9,0.00
2013-7-24,65.9,58.8,54.7,-99.9,-99.9,-202.0,0,0,100,30.01,29.94,9,4,13,0.00
2013-7-25,61.7,56.6,53.8,-99.9,-99.9,-202.0,0,0,100,30.04,29.94,10,6,14,0.00
2013-7-26,63.8,57.2,54.2,-99.9,-99.9,-202.0,0,0,100,30.11,30.03,11,6,14,0.00
2013-7-27,64.1,57.6,54.1,-99.9,-99.9,-202.0,0,0,100,30.04,29.89,12,6,16,0.00
2013-7-28,64.6,57.7,54.3,-99.9,-99.9,-202.0,0,0,100,29.89,29.82,15,7,20,0.00
2013-7-29,65.7,58.9,56.9,29.0,-94.5,-202.0,26,1,9,30.03,29.84,13,6,19,0.00
2013-7-30,61.6,57.4,55.0,-99.9,-99.9,-202.0,0,0,100,30.12,30.03,10,5,14,0.00
2013-7-31,63.4,58.5,54.6,-99.9,-99.9,-202.0,0,0,100,30.10,30.01,19,7,24,0.00
2013-8-1,64.1,59.1,55.7,21.0,-85.4,-202.0,19,1,1,30.08,29.97,22,9,24,0.00
2013-8-2,63.5,57.1,51.9,-99.9,-99.9,-202.0,0,0,100,29.98,29.91,13,5,16,0.00
2013-8-3,67.3,57.0,52.6,26.0,-93.3,-202.0,21,1,2,29.97,29.92,16,5,19,0.00
2013-8-4,61.3,56.4,53.1,-99.9,-99.9,-202.0,0,0,100,30.01,29.97,12,5,14,0.00
2013-8-5,62.0,56.3,54.6,-99.9,-99.9,-202.0,0,0,100,30.04,29.97,15,5,20,0.01
2013-8-6,63.2,58.5,53.9,-99.9,-99.9,-202.0,0,0,100,30.05,29.99,12,5,15,0.02
2013-8-7,66.6,61.0,56.8,-99.9,-99.9,-202.0,0,0,100,30.10,30.04,14,5,16,0.01
2013-8-8,63.2,59.0,55.4,-99.9,-99.9,-202.0,0,0,100,30.04,29.96,12,4,16,0.01
2013-8-9,62.7,57.8,54.5,-99.9,-99.9,-202.0,0,0,100,30.00,29.92,10,5,14,0.00
2013-8-10,63.5,60.0,57.2,-40.0,-98.6,-202.0,1,0,1,30.06,29.99,11,5,14,0.00
2013-8-11,60.6,56.9,54.8,-99.9,-99.9,-202.0,0,0,100,30.03,29.97,10,5,14,0.01
2013-8-12,67.7,58.4,54.8,-99.9,-99.9,-202.0,0,0,100,30.00,29.95,13,5,18,0.00
2013-8-13,65.4,59.4,53.5,-99.9,-99.9,-202.0,0,0,100,30.01,29.93,12,4,15,0.00
2013-8-14,68.2,60.8,55.8,36.0,-86.7,-202.0,32,2,8,29.98,29.91,13,5,20,0.00
2013-8-15,71.0,63.0,59.3,-99.9,-99.9,-202.0,0,0,100,29.97,29.92,9,3,12,0.00
2013-8-16,68.0,60.9,56.2,-99.9,-99.9,-202.0,0,0,100,30.00,29.93,11,4,18,0.00
2013-8-17,67.7,61.0,56.3,28.0,-83.3,-202.0,24,1,1,29.99,29.87,16,5,25,0.00
2013-8-19,61.1,60.6,60.2,-99.9,-99.9,-202.0,0,0,100,29.89,29.88,10,8,16,0.00
2013-8-20,74.1,63.9,59.9,56.0,-66.7,-202.0,55,8,5,29.91,29.84,13,6,22,0.00
2013-8-21,66.4,62.1,59.5,47.0,-45.4,-202.0,51,14,1,29.95,29.89,12,5,15,0.00
2013-8-22,64.5,60.6,57.5,46.0,-53.0,-202.0,51,11,1,29.98,29.91,13,5,16,0.00
2013-8-23,62.1,59.2,57.1,-99.9,-99.9,-202.0,0,0,100,29.93,29.81,18,5,21,0.00
2013-8-24,64.2,59.7,55.8,-99.9,-99.9,-202.0,0,0,100,29.91,29.84,13,5,20,0.00
2013-8-25,70.4,64.0,60.0,8.0,-94.5,-202.0,9,0,6,29.95,29.88,11,3,16,0.00
2013-8-26,66.2,60.5,58.2,-99.9,-99.9,-202.0,0,0,100,30.02,29.91,13,4,18,0.02
2013-8-27,67.1,59.7,55.3,43.0,-91.7,-202.0,42,1,1,29.91,29.84,12,4,16,0.01
2013-8-28,70.6,63.1,58.0,-99.9,-99.9,-202.0,0,0,100,29.95,29.85,10,3,14,0.01
2013-8-29,70.9,63.8,60.2,45.0,-85.5,-202.0,39,2,3,30.07,29.95,9,4,14,0.01
2013-8-30,70.8,62.1,57.1,44.0,-80.1,-202.0,38,4,1,30.03,29.94,12,3,21,0.00
2013-8-31,65.3,59.5,56.2,19.0,-93.4,-202.0,17,1,3,29.98,29.91,12,4,15,0.00
2013-9-1,66.1,59.8,53.5,31.0,-84.9,-202.0,28,2,3,29.96,29.90,10,3,15,0.00
2013-9-2,72.8,65.4,60.3,53.0,-61.4,-202.0,51,10,1,29.95,29.89,9,3,14,0.00
2013-9-3,70.3,63.4,57.6,50.0,-56.8,-202.0,56,11,5,30.00,29.93,14,4,21,0.00
2013-9-4,70.0,62.8,58.4,43.0,-62.2,-202.0,39,6,3,30.03,29.94,15,4,26,0.01
2013-9-5,68.7,62.2,58.0,54.0,-46.3,-202.0,59,14,2,30.02,29.95,19,6,23,0.00
2013-9-6,80.8,64.6,54.2,61.0,-16.7,-202.0,67,29,1,29.99,29.84,9,1,11,0.00
2013-9-7,75.3,64.4,57.1,62.0,10.7,-202.0,68,37,2,29.86,29.82,9,2,12,0.00
2013-9-8,66.3,58.3,53.9,47.0,-79.1,-202.0,51,5,1,29.88,29.79,11,3,13,0.00
2013-9-9,70.3,59.5,52.4,52.0,-69.3,-202.0,53,7,9,29.82,29.73,11,3,13,0.00
2013-9-10,69.1,63.0,58.3,45.0,-75.3,-202.0,43,5,5,29.90,29.74,14,6,20,0.00
2013-9-11,69.5,65.0,62.3,52.0,-49.7,-202.0,55,13,1,30.00,29.89,9,3,13,0.00
2013-9-12,67.0,62.3,57.7,35.0,-88.2,-202.0,31,1,1,29.98,29.91,15,5,21,0.01
2013-9-13,61.4,58.1,55.0,-99.9,-99.9,-202.0,0,0,100,29.90,29.77,20,7,26,0.00
2013-9-14,64.9,59.0,54.8,35.0,-76.2,-202.0,34,4,5,29.83,29.75,16,7,23,0.00
2013-9-15,68.5,62.2,56.5,57.0,-34.8,-202.0,67,25,15,29.87,29.78,9,4,13,0.00
2013-9-16,68.1,61.1,56.0,52.0,-57.5,-202.0,59,13,4,29.89,29.79,16,5,24,0.00
2013-9-17,64.0,59.5,56.0,43.0,-50.1,-202.0,48,13,1,29.90,29.82,34,8,34,0.00
2013-9-18,71.3,58.9,51.8,58.0,-24.5,-202.0,67,27,2,29.92,29.83,14,3,24,0.00
2013-9-19,69.4,58.1,49.9,57.0,-43.6,-202.0,66,21,13,29.86,29.79,10,3,16,0.00
2013-9-20,73.2,62.0,53.9,54.0,-76.7,-202.0,52,5,2,29.85,29.78,14,4,18,0.01
2013-9-21,68.1,61.6,56.1,34.0,-76.3,-202.0,31,4,6,29.90,29.78,14,5,19,0.03
2013-9-22,66.4,59.5,52.2,48.0,-57.2,-202.0,53,11,1,30.01,29.90,19,3,21,0.01
2013-9-23,72.4,61.7,56.5,59.0,-56.0,-202.0,63,13,3,30.01,29.95,12,2,15,0.00
2013-9-24,67.0,60.5,55.2,53.0,-40.6,-202.0,61,15,3,30.00,29.92,21,6,32,0.00
2013-9-25,63.2,57.8,52.2,52.0,-15.9,-202.0,67,30,9,29.95,29.84,19,6,32,0.00
2013-9-26,65.6,56.2,48.6,52.0,23.5,-99.9,68,45,11,30.00,29.86,15,3,21,0.00
2013-9-27,71.7,57.4,47.7,53.0,-23.1,-202.0,68,26,2,30.09,30.00,12,2,15,0.01
2013-9-28,69.8,58.0,48.2,54.0,-40.9,-202.0,67,21,3,30.08,30.03,10,2,14,0.00
2013-9-29,70.9,62.2,55.5,19.0,-89.9,-202.0,14,1,4,30.10,30.04,13,5,18,0.02
2013-9-30,70.4,62.0,53.2,36.0,-79.4,-202.0,29,2,1,30.06,29.99,12,6,16,0.01
2013-10-1,64.5,57.7,52.4,52.0,-40.1,-202.0,64,20,7,30.01,29.93,13,4,21,0.01
2013-10-2,61.7,56.0,50.7,49.0,-16.9,-202.0,65,28,12,30.04,29.94,22,5,30,0.00
2013-10-3,64.0,57.4,50.3,52.0,40.0,10.0,68,55,17,30.09,29.97,12,3,25,0.00
2013-10-4,83.4,68.2,53.6,47.0,33.1,22.0,63,31,11,30.09,29.99,26,7,35,0.00
2013-10-5,85.8,64.6,51.0,50.0,37.3,28.0,64,42,14,30.16,30.08,13,2,13,0.00
2013-10-6,84.9,63.8,50.5,50.0,40.2,34.0,64,46,17,30.11,29.99,9,2,13,0.00
2013-10-7,69.8,58.0,49.9,51.0,14.8,-202.0,65,46,4,30.00,29.89,12,2,16,0.00
2013-10-8,63.3,55.6,48.5,50.0,-45.7,-202.0,63,18,1,29.91,29.72,11,4,19,0.01
2013-10-9,63.8,55.7,50.1,50.0,-34.4,-202.0,64,25,5,29.77,29.65,11,3,22,0.00
2013-10-10,67.7,56.2,49.1,54.0,-50.6,-202.0,63,18,5,30.01,29.76,13,3,16,0.00
2013-10-11,59.0,52.4,47.3,34.0,-73.5,-202.0,39,5,6,30.10,30.00,9,3,15,0.00
2013-10-12,60.1,52.6,43.8,36.0,-73.5,-202.0,42,5,1,30.02,29.91,19,4,25,0.00
2013-10-13,67.9,54.6,47.7,54.0,-60.7,-202.0,63,15,18,30.07,29.95,10,1,13,0.00
2013-10-14,72.4,56.4,45.8,51.0,-6.9,-202.0,65,34,19,30.12,30.01,8,1,12,0.01
2013-10-15,77.1,58.3,47.2,50.0,39.8,33.0,65,52,27,30.04,29.96,8,1,13,0.00
2013-10-16,81.0,59.0,47.6,48.0,39.5,27.0,66,51,21,30.07,29.99,7,1,14,0.00
2013-10-17,74.1,57.1,48.4,49.0,7.5,-202.0,65,41,6,30.08,29.98,8,2,11,0.00
2013-10-18,58.5,51.6,47.9,22.0,-88.3,-202.0,25,2,4,30.07,30.00,9,2,13,0.00
2013-10-19,61.8,51.0,45.6,35.0,-87.5,-202.0,38,2,1,30.09,30.02,9,2,13,0.00
2013-10-20,56.1,50.6,47.2,-99.9,-99.9,-202.0,0,0,100,30.04,29.95,10,3,13,0.01
2013-10-21,57.3,51.2,49.1,-99.9,-99.9,-202.0,0,0,100,30.02,29.93,8,2,11,0.00
2013-10-22,55.1,50.0,46.9,-99.9,-99.9,-202.0,0,0,100,30.04,29.95,10,2,12,0.00
2013-10-23,54.0,49.9,47.3,-99.9,-99.9,-202.0,0,0,100,29.99,29.94,10,4,16,0.00
2013-10-24,59.9,53.3,48.3,45.0,-57.2,-202.0,58,13,1,30.11,29.98,8,2,13,0.01
2013-10-25,60.8,53.4,46.4,46.0,-55.1,-202.0,61,16,8,30.17,30.10,10,2,13,0.01
2013-10-26,62.6,51.6,44.9,48.0,-79.0,-202.0,59,6,1,30.16,30.05,8,2,14,0.01
2013-10-27,57.3,52.6,48.8,14.0,-93.7,-202.0,19,1,4,30.05,29.69,23,8,37,0.00
2013-10-28,59.1,54.6,50.1,47.0,-51.3,-202.0,64,17,7,29.82,29.68,21,6,27,0.00
2013-10-29,60.7,52.3,45.5,48.0,-59.8,-202.0,64,14,9,30.06,29.83,10,2,13,0.01
2013-10-30,62.7,51.1,43.3,50.0,-65.5,-202.0,65,11,2,30.15,30.05,10,2,13,0.01
2013-10-31,66.9,52.4,43.0,54.0,-46.4,-202.0,65,19,2,30.18,30.07,7,1,9,0.01
2013-11-1,74.6,56.0,46.8,54.0,-16.7,-99.9,67,28,3,30.14,30.02,9,1,12,0.00
2013-11-2,61.4,52.8,45.7,31.0,-63.6,-202.0,35,6,1,30.04,29.91,18,3,28,0.01
2013-11-3,58.2,51.9,43.8,47.0,29.9,-15.0,67,47,6,30.07,29.95,13,4,22,0.00
2013-11-4,62.2,50.8,40.3,49.0,-2.8,-202.0,67,34,1,30.11,29.94,11,2,21,0.00
2013-11-5,67.9,53.2,43.5,49.0,-42.6,-202.0,66,21,2,30.21,30.09,6,1,9,0.00
2013-11-6,75.8,57.1,46.9,50.0,1.0,-202.0,67,33,1,30.25,30.15,6,1,12,0.00
2013-11-7,65.6,56.1,50.7,51.0,-7.0,-202.0,67,36,12,30.17,30.08,9,2,16,0.00
2013-11-8,64.7,53.1,45.6,48.0,-62.8,-202.0,62,12,7,30.09,29.97,14,2,21,0.01
2013-11-9,72.2,52.6,41.8,54.0,-55.0,-202.0,64,17,10,30.05,29.96,10,1,14,0.01
2013-11-10,64.9,55.0,47.9,51.0,-55.8,-202.0,61,15,3,30.12,30.02,14,3,16,0.01
2013-11-11,63.6,54.1,47.3,48.0,-66.8,-202.0,57,8,3,30.17,30.07,7,2,11,0.00
2013-11-12,67.0,58.5,54.9,54.0,-35.0,-202.0,65,22,1,30.27,30.15,7,1,12,0.01
2013-11-13,61.9,53.7,48.7,24.0,-93.3,-202.0,24,1,3,30.26,30.12,9,2,12,0.01
2013-11-14,58.7,53.4,50.7,-99.9,-99.9,-202.0,0,0,100,30.12,29.91,15,4,25,0.01
2013-11-15,59.6,53.4,48.3,47.0,-42.2,-202.0,67,22,2,29.92,29.73,13,4,21,0.00
2013-11-16,60.6,53.5,47.0,49.0,-39.8,-202.0,65,17,1,29.93,29.78,18,5,23,0.00
2013-11-17,60.6,51.6,45.1,45.0,-58.3,-202.0,56,11,1,30.09,29.93,7,1,11,0.00
2013-11-18,59.9,51.0,43.1,37.0,-82.7,-202.0,42,3,4,30.16,30.09,12,2,16,0.01
2013-11-19,56.9,55.5,53.3,-99.9,-99.9,-202.0,0,0,100,30.09,29.92,13,6,18,0.35
2013-11-20,57.6,54.7,50.2,-99.9,-99.9,-202.0,0,0,100,29.93,29.85,10,3,15,0.20
2013-11-21,65.6,56.8,50.0,47.0,-21.7,-202.0,64,19,22,29.98,29.91,23,7,30,0.07
2013-11-22,75.8,63.5,51.1,34.0,17.3,9.0,35,18,9,30.02,29.89,26,7,28,0.01
2013-11-23,64.3,54.0,44.8,43.0,33.7,13.0,63,48,22,30.11,29.94,8,2,11,0.00
2013-11-24,63.3,49.7,42.0,50.0,-37.9,-202.0,66,22,6,30.26,30.11,9,1,14,0.00
2013-11-25,66.8,50.8,41.2,51.0,-28.6,-202.0,66,26,1,30.32,30.24,5,0,8,0.01
2013-11-26,64.0,54.3,45.9,48.0,1.7,-202.0,66,38,9,30.27,30.03,18,2,18,0.00
2013-11-27,65.4,56.7,50.7,47.0,43.4,33.0,67,62,46,30.03,29.82,12,4,15,0.00
2013-11-28,69.2,54.9,48.5,50.0,34.6,-16.0,65,49,5,30.08,29.86,10,3,12,0.00
2013-11-29,66.7,51.6,43.1,52.0,-36.0,-202.0,66,19,3,30.23,30.08,11,1,14,0.00
2013-11-30,61.0,50.6,44.7,47.0,-71.1,-202.0,60,8,8,30.28,30.19,7,1,12,0.00
2013-12-1,68.1,52.1,43.0,54.0,-57.6,-202.0,64,16,8,30.33,30.22,7,1,10,0.01
2013-12-2,60.4,53.0,42.7,35.0,-83.6,-202.0,40,3,7,30.24,29.98,13,4,23,0.01
2013-12-3,54.5,50.1,40.5,43.0,18.1,-202.0,68,53,12,29.96,29.85,22,8,32,0.00
2013-12-4,54.6,42.1,33.8,40.0,24.5,-5.0,68,52,19,30.10,29.97,7,1,11,0.00
2013-12-5,51.4,39.9,31.8,38.0,24.0,5.0,68,54,26,30.16,30.09,7,1,12,0.00
2013-12-6,50.8,42.6,31.8,39.0,-53.0,-202.0,67,16,1,30.20,29.93,23,4,27,0.23
2013-12-7,49.5,43.1,33.0,36.0,20.3,-202.0,70,56,3,30.28,29.94,25,6,32,0.00
2013-12-8,48.4,38.0,31.2,33.0,24.1,17.0,69,58,36,30.33,30.22,9,2,11,0.00
2013-12-9,52.8,38.4,28.8,38.0,24.0,10.0,69,57,36,30.43,30.32,7,1,11,0.00
2013-12-10,58.2,42.5,33.3,42.0,-7.0,-202.0,69,43,3,30.42,30.21,12,2,14,0.00
2013-12-11,60.8,45.0,35.0,44.0,-5.8,-202.0,67,39,6,30.24,30.16,10,1,11,0.00
2013-12-12,61.8,49.0,41.9,44.0,-2.9,-202.0,67,42,2,30.26,30.16,9,2,11,0.00
2013-12-13,60.6,46.0,37.5,46.0,-65.6,-202.0,65,14,33,30.34,30.24,6,1,10,0.01
2013-12-14,59.4,45.2,37.2,47.0,-71.8,-202.0,64,10,11,30.39,30.30,7,1,9,0.01
2013-12-15,62.4,46.7,39.2,47.0,-55.4,-202.0,65,17,11,30.37,30.24,11,3,14,0.01
2013-12-16,66.9,53.7,42.2,48.0,30.0,-202.0,67,53,31,30.25,30.10,10,3,14,0.00
2013-12-17,71.0,56.1,43.6,47.0,16.0,-202.0,66,43,8,30.16,30.03,8,2,13,0.00
2013-12-18,52.8,48.3,43.3,-99.9,-99.9,-202.0,0,0,100,30.04,29.80,14,3,28,0.00
2013-12-19,56.5,49.8,42.1,45.0,24.3,-202.0,68,55,10,29.96,29.75,28,5,28,0.00
2013-12-20,57.5,46.4,35.9,46.0,-2.9,-202.0,69,42,4,30.01,29.94,14,2,23,0.00
2013-12-21,57.4,51.0,43.5,11.0,-94.7,-202.0,16,1,4,30.09,29.98,11,5,24,0.00
2013-12-22,63.6,49.3,41.0,49.0,-30.8,-202.0,65,25,1,30.30,30.10,7,1,11,0.01
2013-12-23,67.2,50.2,40.9,50.0,-25.8,-202.0,66,24,1,30.38,30.29,6,1,9,0.00
2013-12-24,66.3,50.7,43.4,52.0,-42.9,-202.0,67,22,10,30.35,30.20,6,1,10,0.00
2013-12-25,70.6,51.2,40.4,48.0,-25.2,-202.0,65,26,15,30.29,30.17,9,1,11,0.01
2013-12-26,72.1,55.1,43.8,46.0,14.8,-202.0,65,37,14,30.25,30.13,8,2,14,0.00
2013-12-27,65.4,51.3,42.8,46.0,27.6,-7.0,66,43,10,30.22,30.13,8,1,11,0.00
2013-12-28,62.6,46.3,37.5,47.0,-39.4,-202.0,65,21,3,30.16,30.03,6,1,8,0.00
2013-12-29,68.1,48.8,38.9,44.0,31.0,7.0,66,52,23,30.18,30.09,8,1,10,0.00
2013-12-30,66.3,53.2,42.5,46.0,8.2,-202.0,66,42,23,30.26,30.16,9,3,14,0.00
2013-12-31,59.5,46.4,39.5,47.0,-78.4,-202.0,64,6,8,30.28,30.17,8,1,14,0.01
2014-1-1,59.4,45.1,36.5,46.0,-73.7,-202.0,66,10,2,30.21,30.12,8,1,11,0.01
2014-1-2,69.3,50.4,39.4,49.0,-19.2,-202.0,65,27,10,30.17,30.05,8,1,10,0.01